Taasinge, Denmark

11:20 PM CET on January 28, 2015 (GMT +0100)
Taasinge | Change Station
CLOSE
Current Station
Personal Weather Station
Location: Svendborg, Vindeby, Taasinge
Elevation: 52 ft
Nearby Weather Stations

Elev 52 ft 55.04 °N, 10.62 °E | Updated 2 seconds ago

Light Rain Showers
Light Showers Rain Snow
38.2 °F
Feels Like 29 °F
N
17.0
Wind Variable Wind from WSW
Gusts 17.0 mph

Today
High -- | Low -- °F
--% Chance of Precip.
Yesterday
High -- | Low -- °F
Precip. -- in
8:16 AM 4:45 PM
Waxing Gibbous, 68% visible
Pressure 28.97 in
Visibility 5.0 miles
Clouds Scattered Clouds 1800 ft
Mostly Cloudy 3500 ft
Windchill 29 °F
Dew Point 36 °F
Humidity 93%
Rainfall 0.17 in
Snow Depth Not available.
UV 0 out of 12
Pollen Not available.
Air Quality Not available.
Flu Activity Not available.
METAR EKSB 282152Z 24011G27KT 200V270 8000 -SHRASN SCT018CB BKN035 03/01 Q0981

More Conditions Fewer Conditions

Pressure 28.97 in
Visibility 5.0 miles
Clouds Scattered Clouds 1800 ft
Mostly Cloudy 3500 ft
Windchill 29 °F
Dew Point 36 °F
Humidity 93%
Rainfall 0.17 in
Snow Depth Not available.
UV 0 out of 12
Pollen Not available.
Air Quality Not available.
Flu Activity Not available.
METAR EKSB 282152Z 24011G27KT 200V270 8000 -SHRASN SCT018CB BKN035 03/01 Q0981

More Conditions Fewer Conditions

10-Day Weather Forecast

Almanac

Astronomy

Jan. 28, 2015 Rise Set
Actual Time
Civil Twilight
Nautical Twilight
Astronomical Twilight
Moon
Length of Visible Light
Length of Day
Tomorrow will be .
, % of the Moon is Illuminated

Today's Extremes

Country Highs Country Lows

Community

WunderPhotos

Upload Photos

1,791,282 photos uploaded!

WunderBlogs® & News

Nearby

Air Quality

  Air Quality AQ Index Pollutant
Not available.

Snow Depth

Station Depth Elevation

Earthquake Activity

City Distance Mag. Time & Date
Minimum magnitude displayed is 2.5.

Coastal Water Temperatures

Place Temperature

Nearby Weather Stations